Time;durP1;ratioP1;P1;durP2;ratioP2;P2;SDS_P1;SDS_P2;PMS_P1;PMS_P2;Temp;Humidity;BMP_temperature;BMP_pressure;BME280_temperature;BME280_humidity;BME280_pressure;Samples;Min_cycle;Max_cycle;Signal;HPM_P1;HPM_P2
2021/12/03 00:02:14;0.00;0.00;0.62;0.00;0.00;0.62;1.40;0.90;;;21.10;27.20;;;;;;2218349;62;20732;-67
2021/12/03 00:04:59;0.00;0.00;0.62;0.00;0.00;0.62;1.60;0.90;;;21.10;27.20;;;;;;2217289;62;20489;-65
2021/12/03 00:07:44;0.00;0.00;0.62;0.00;0.00;0.62;1.60;0.93;;;21.00;27.20;;;;;;2213902;62;20740;-67
2021/12/03 00:10:22;0.00;0.00;0.62;0.00;0.00;0.62;1.80;1.10;;;21.10;27.20;;;;;;2230597;62;20390;-67
2021/12/03 00:13:11;0.00;0.00;0.62;0.00;0.00;0.62;1.40;0.90;;;21.10;27.20;;;;;;2229220;62;20387;-67
2021/12/03 00:15:58;0.00;0.00;0.62;0.00;0.00;0.62;1.70;0.90;;;21.00;27.20;;;;;;2228572;62;20670;-67
2021/12/03 00:18:43;0.00;0.00;0.62;0.00;0.00;0.62;1.83;0.90;;;21.00;27.20;;;;;;2226309;62;20401;-68
2021/12/03 00:21:29;0.00;0.00;0.62;0.00;0.00;0.62;1.50;0.90;;;21.00;27.10;;;;;;2225038;62;20744;-68
2021/12/03 00:24:14;0.00;0.00;0.62;0.00;0.00;0.62;1.37;0.80;;;21.00;27.10;;;;;;2225466;62;20362;-67
2021/12/03 00:26:58;0.00;0.00;0.62;0.00;0.00;0.62;1.30;0.73;;;21.00;27.10;;;;;;2221968;62;20382;-67
2021/12/03 00:29:43;0.00;0.00;0.62;0.00;0.00;0.62;2.40;1.10;;;21.00;27.10;;;;;;2223805;62;20355;-67
2021/12/03 00:32:27;0.00;0.00;0.62;0.00;0.00;0.62;2.33;0.90;;;21.00;27.10;;;;;;2221860;62;20760;-67
2021/12/03 00:35:14;0.00;0.00;0.62;0.00;0.00;0.62;1.50;0.90;;;21.00;27.10;;;;;;2220950;62;20722;-68
2021/12/03 00:38:00;0.00;0.00;0.62;0.00;0.00;0.62;1.83;1.17;;;21.00;27.00;;;;;;2221495;62;20455;-67
2021/12/03 00:43:47;0.00;0.00;0.62;0.00;0.00;0.62;1.33;0.80;;;21.00;27.00;;;;;;2227606;62;20389;-67
2021/12/03 00:46:32;0.00;0.00;0.62;0.00;0.00;0.62;1.83;1.07;;;21.00;27.00;;;;;;2221233;62;20398;-67
2021/12/03 00:52:15;0.00;0.00;0.62;0.00;0.00;0.62;1.73;0.90;;;21.00;27.00;;;;;;1676009;74;20823;-66
2021/12/03 00:55:00;0.00;0.00;0.62;0.00;0.00;0.62;1.30;0.80;;;21.00;27.00;;;;;;2254181;61;20448;-67
2021/12/03 00:57:27;0.00;0.00;0.62;0.00;0.00;0.62;1.40;0.90;;;20.90;26.90;;;;;;2252515;61;20369;-67
2021/12/03 00:59:53;0.00;0.00;0.62;0.00;0.00;0.62;1.77;0.90;;;20.90;26.90;;;;;;2251619;61;20372;-67
2021/12/03 01:02:40;0.00;0.00;0.62;0.00;0.00;0.62;1.57;0.97;;;20.90;26.90;;;;;;2252526;61;20359;-67
2021/12/03 01:05:26;0.00;0.00;0.62;0.00;0.00;0.62;1.50;0.90;;;20.90;26.90;;;;;;2252174;61;20367;-66
2021/12/03 01:08:12;0.00;0.00;0.62;0.00;0.00;0.62;2.10;1.07;;;20.90;27.00;;;;;;2251988;61;20783;-65
2021/12/03 01:10:57;0.00;0.00;0.62;0.00;0.00;0.62;1.90;1.20;;;20.90;27.00;;;;;;2252320;61;20399;-65
2021/12/03 01:16:52;0.00;0.00;0.62;0.00;0.00;0.62;2.60;2.00;;;20.90;27.00;;;;;;2267380;48;20405;-67
2021/12/03 01:19:37;0.00;0.00;0.62;0.00;0.00;0.62;3.43;1.60;;;20.90;26.60;;;;;;2258383;61;20770;-67
2021/12/03 01:22:22;0.00;0.00;0.62;0.00;0.00;0.62;2.63;2.10;;;20.80;26.30;;;;;;2255459;61;20370;-68
2021/12/03 01:28:00;0.00;0.00;0.62;0.00;0.00;0.62;3.27;1.93;;;20.80;26.00;;;;;;2264778;61;20377;-67
2021/12/03 01:30:44;0.00;0.00;0.62;0.00;0.00;0.62;2.87;2.67;;;20.70;25.80;;;;;;2264603;61;20373;-67
2021/12/03 01:33:32;0.00;0.00;0.62;0.00;0.00;0.62;2.10;1.90;;;20.70;25.70;;;;;;2261894;61;20737;-67
2021/12/03 01:36:17;0.00;0.00;0.62;0.00;0.00;0.62;2.47;2.07;;;20.60;25.60;;;;;;2260723;61;20397;-68
2021/12/03 01:39:02;0.00;0.00;0.62;0.00;0.00;0.62;2.20;1.87;;;20.50;25.50;;;;;;2260537;61;20432;-67
2021/12/03 01:41:48;0.00;0.00;0.62;0.00;0.00;0.62;2.70;2.33;;;20.50;25.50;;;;;;2259868;61;20405;-67
2021/12/03 01:44:33;0.00;0.00;0.62;0.00;0.00;0.62;2.97;1.93;;;20.50;25.60;;;;;;2260010;61;20596;-67
2021/12/03 01:47:18;0.00;0.00;0.62;0.00;0.00;0.62;2.87;2.30;;;20.40;25.50;;;;;;2259739;61;20401;-67
2021/12/03 01:50:06;0.00;0.00;0.62;0.00;0.00;0.62;3.20;2.50;;;20.40;25.40;;;;;;2260097;61;20394;-68
2021/12/03 01:52:57;0.00;0.00;0.62;0.00;0.00;0.62;2.77;2.10;;;20.30;25.20;;;;;;2259444;61;20409;-68
2021/12/03 01:55:45;0.00;0.00;0.62;0.00;0.00;0.62;2.80;2.47;;;20.30;25.20;;;;;;2259451;61;20390;-68
2021/12/03 01:58:31;0.00;0.00;0.62;0.00;0.00;0.62;4.53;2.60;;;20.20;25.10;;;;;;2259139;61;20593;-67
2021/12/03 02:01:19;0.00;0.00;0.62;0.00;0.00;0.62;3.20;2.47;;;20.10;25.00;;;;;;2259959;61;20722;-68
2021/12/03 02:03:53;0.00;0.00;0.62;0.00;0.00;0.62;4.50;3.13;;;20.10;25.00;;;;;;2262251;61;20423;-67
2021/12/03 02:06:40;0.00;0.00;0.62;0.00;0.00;0.62;3.03;2.40;;;20.00;25.00;;;;;;2261768;61;20642;-67
2021/12/03 02:09:24;0.00;0.00;0.62;0.00;0.00;0.62;5.10;2.80;;;20.00;24.90;;;;;;2257991;61;20362;-68
2021/12/03 02:12:10;0.00;0.00;0.62;0.00;0.00;0.62;3.80;2.93;;;19.90;24.90;;;;;;2259731;61;20385;-67
2021/12/03 02:14:56;0.00;0.00;0.62;0.00;0.00;0.62;3.77;3.03;;;19.90;24.90;;;;;;2261181;61;20366;-67
2021/12/03 02:17:41;0.00;0.00;0.62;0.00;0.00;0.62;3.83;3.00;;;19.80;24.80;;;;;;2261414;61;20493;-67
2021/12/03 02:20:26;0.00;0.00;0.62;0.00;0.00;0.62;4.00;2.60;;;19.80;24.80;;;;;;2261223;61;20469;-67
2021/12/03 02:23:13;0.00;0.00;0.62;0.00;0.00;0.62;3.70;3.13;;;19.80;24.80;;;;;;2262034;61;20341;-68
2021/12/03 02:28:48;0.00;0.00;0.62;0.00;0.00;0.62;4.20;3.20;;;19.60;24.60;;;;;;2258142;61;20430;-67
2021/12/03 02:31:33;0.00;0.00;0.62;0.00;0.00;0.62;4.07;3.00;;;19.60;24.60;;;;;;2257564;61;20837;-67
2021/12/03 02:34:18;0.00;0.00;0.62;0.00;0.00;0.62;6.03;3.20;;;19.50;24.60;;;;;;2256999;61;20584;-67
2021/12/03 02:39:52;0.00;0.00;0.62;0.00;0.00;0.62;4.00;3.60;;;19.40;24.60;;;;;;2255585;61;20747;-65
2021/12/03 02:42:37;0.00;0.00;0.62;0.00;0.00;0.62;3.93;3.20;;;19.40;24.60;;;;;;2253165;61;20364;-67
2021/12/03 02:45:25;0.00;0.00;0.62;0.00;0.00;0.62;5.80;3.70;;;19.40;24.50;;;;;;2253530;61;20733;-67
2021/12/03 02:48:22;0.00;0.00;0.62;0.00;0.00;0.62;6.90;3.90;;;19.30;24.30;;;;;;2249763;61;20361;-66
2021/12/03 02:51:08;0.00;0.00;0.62;0.00;0.00;0.62;3.60;3.30;;;19.20;24.30;;;;;;2249408;61;20473;-67
2021/12/03 02:53:52;0.00;0.00;0.62;0.00;0.00;0.62;5.97;3.60;;;19.20;24.30;;;;;;2249392;61;20590;-66
2021/12/03 02:56:38;0.00;0.00;0.62;0.00;0.00;0.62;5.40;4.60;;;19.20;24.30;;;;;;2249254;61;20655;-67
2021/12/03 02:59:25;0.00;0.00;0.62;0.00;0.00;0.62;5.40;3.90;;;19.10;24.30;;;;;;2249859;61;20371;-67
2021/12/03 03:02:10;0.00;0.00;0.62;0.00;0.00;0.62;3.93;3.30;;;19.00;24.20;;;;;;2249312;61;20361;-66
2021/12/03 03:05:04;;;;;;;;;;;;;;;;;;;;;
2021/12/03 03:07:49;0.00;0.00;0.62;0.00;0.00;0.62;6.10;5.00;;;18.90;24.20;;;;;;2266607;55;20769;-68
2021/12/03 03:13:24;0.00;0.00;0.62;0.00;0.00;0.62;5.40;4.10;;;18.80;24.10;;;;;;2254608;61;20612;-67
2021/12/03 03:16:11;0.00;0.00;0.62;0.00;0.00;0.62;5.60;4.40;;;18.80;24.20;;;;;;2253153;61;20380;-68
2021/12/03 03:18:48;0.00;0.00;0.62;0.00;0.00;0.62;4.70;3.60;;;18.70;24.20;;;;;;2266491;61;20749;-65
2021/12/03 03:21:43;;;;;;;;;;;;;;;;;;;;;
2021/12/03 03:24:22;0.00;0.00;0.62;0.00;0.00;0.62;5.00;4.20;;;18.70;24.30;;;;;;2251427;61;20738;-65
2021/12/03 03:27:08;0.00;0.00;0.62;0.00;0.00;0.62;4.97;3.97;;;18.60;24.30;;;;;;2249179;61;20467;-69
2021/12/03 03:29:54;0.00;0.00;0.62;0.00;0.00;0.62;5.37;4.87;;;18.60;24.30;;;;;;2249653;61;20388;-65
2021/12/03 03:32:40;0.00;0.00;0.62;0.00;0.00;0.62;6.43;4.50;;;18.50;24.20;;;;;;2249599;61;20364;-66
2021/12/03 03:35:30;0.00;0.00;0.62;0.00;0.00;0.62;5.23;4.53;;;18.50;24.10;;;;;;2249066;61;20411;-68
2021/12/03 03:38:15;0.00;0.00;0.62;0.00;0.00;0.62;5.87;5.27;;;18.40;24.20;;;;;;2251204;61;20737;-67
2021/12/03 03:41:00;0.00;0.00;0.62;0.00;0.00;0.62;5.73;4.57;;;18.40;24.20;;;;;;2251178;61;20356;-67
2021/12/03 03:46:33;0.00;0.00;0.62;0.00;0.00;0.62;5.53;4.90;;;18.30;24.30;;;;;;2254620;61;20391;-67
2021/12/03 03:49:18;0.00;0.00;0.62;0.00;0.00;0.62;5.90;5.30;;;18.30;24.40;;;;;;2252984;61;20376;-67
2021/12/03 03:52:05;0.00;0.00;0.62;0.00;0.00;0.62;4.97;4.40;;;18.30;24.30;;;;;;2253962;61;20787;-66
2021/12/03 03:54:50;0.00;0.00;0.62;0.00;0.00;0.62;5.40;4.63;;;18.20;24.30;;;;;;2253460;61;20432;-67
2021/12/03 03:57:38;0.00;0.00;0.62;0.00;0.00;0.62;5.70;5.10;;;18.20;24.40;;;;;;2251005;61;20565;-66
2021/12/03 04:03:14;0.00;0.00;0.62;0.00;0.00;0.62;6.13;4.83;;;18.20;24.40;;;;;;2250386;61;20377;-67
2021/12/03 04:05:59;0.00;0.00;0.62;0.00;0.00;0.62;5.03;4.43;;;18.20;24.40;;;;;;2249878;61;20389;-67
2021/12/03 04:08:46;0.00;0.00;0.62;0.00;0.00;0.62;6.30;4.67;;;18.10;24.40;;;;;;2248704;61;20400;-67
2021/12/03 04:11:30;0.00;0.00;0.62;0.00;0.00;0.62;6.90;5.87;;;18.10;24.40;;;;;;2249012;61;20756;-67
2021/12/03 04:14:18;0.00;0.00;0.62;0.00;0.00;0.62;6.87;5.47;;;18.10;24.40;;;;;;2249370;61;20404;-67
2021/12/03 04:17:03;0.00;0.00;0.62;0.00;0.00;0.62;5.67;5.07;;;18.10;24.40;;;;;;2254987;61;20395;-67
2021/12/03 04:19:51;0.00;0.00;0.62;0.00;0.00;0.62;5.33;4.43;;;18.10;24.40;;;;;;2251336;61;20377;-67
2021/12/03 04:22:38;0.00;0.00;0.62;0.00;0.00;0.62;6.87;5.43;;;18.00;24.40;;;;;;2248793;61;20360;-67
2021/12/03 04:25:23;0.00;0.00;0.62;0.00;0.00;0.62;4.80;4.30;;;18.10;24.50;;;;;;2248778;61;20608;-67
2021/12/03 04:31:07;;;;;;;;;;;;;;;;;;;;;
2021/12/03 04:33:51;0.00;0.00;0.62;0.00;0.00;0.62;7.73;5.33;;;18.00;24.50;;;;;;2253139;61;20403;-67
2021/12/03 04:36:37;0.00;0.00;0.62;0.00;0.00;0.62;5.20;4.40;;;18.00;24.50;;;;;;2252801;61;20379;-67
2021/12/03 04:39:23;0.00;0.00;0.62;0.00;0.00;0.62;7.97;5.63;;;18.00;24.50;;;;;;2253207;61;20366;-67
2021/12/03 04:42:08;0.00;0.00;0.62;0.00;0.00;0.62;6.83;6.13;;;18.00;24.50;;;;;;2253299;61;20376;-67
2021/12/03 04:44:53;0.00;0.00;0.62;0.00;0.00;0.62;7.70;5.20;;;17.90;24.30;;;;;;2252508;61;20631;-67
2021/12/03 04:47:38;0.00;0.00;0.62;0.00;0.00;0.62;6.37;5.00;;;18.00;24.40;;;;;;2252909;61;20391;-68
2021/12/03 04:50:26;0.00;0.00;0.62;0.00;0.00;0.62;6.13;5.43;;;17.90;24.30;;;;;;2253128;61;20416;-67
2021/12/03 04:53:12;0.00;0.00;0.62;0.00;0.00;0.62;5.80;5.00;;;17.90;24.30;;;;;;2253157;61;20360;-67
2021/12/03 04:55:58;0.00;0.00;0.62;0.00;0.00;0.62;5.60;4.77;;;17.90;24.30;;;;;;2252963;61;20507;-66
2021/12/03 05:01:56;0.00;0.00;0.62;0.00;0.00;0.62;6.57;5.70;;;17.80;24.20;;;;;;2250969;61;20380;-68
2021/12/03 05:13:07;0.00;0.00;0.62;0.00;0.00;0.62;6.60;5.03;;;17.70;24.40;;;;;;2258197;61;20378;-66
2021/12/03 05:15:52;0.00;0.00;0.62;0.00;0.00;0.62;7.50;5.40;;;17.70;24.30;;;;;;2257349;61;20430;-67
2021/12/03 05:18:37;0.00;0.00;0.62;0.00;0.00;0.62;7.10;5.90;;;17.60;24.30;;;;;;2256881;61;20471;-66
2021/12/03 05:21:21;0.00;0.00;0.62;0.00;0.00;0.62;5.33;4.67;;;17.60;24.30;;;;;;2256674;61;20421;-66
2021/12/03 05:24:06;0.00;0.00;0.62;0.00;0.00;0.62;11.97;4.90;;;17.60;24.30;;;;;;2257417;61;20375;-66
2021/12/03 05:26:51;0.00;0.00;0.62;0.00;0.00;0.62;5.53;4.60;;;17.50;24.20;;;;;;2257283;61;20759;-66
2021/12/03 05:29:39;0.00;0.00;0.62;0.00;0.00;0.62;6.00;4.70;;;17.50;24.20;;;;;;2257228;61;20754;-66
2021/12/03 05:32:30;0.00;0.00;0.62;0.00;0.00;0.62;6.30;5.27;;;17.50;24.30;;;;;;2254199;61;20417;-68
2021/12/03 05:34:56;0.00;0.00;0.62;0.00;0.00;0.62;8.13;6.17;;;17.50;24.20;;;;;;2253552;61;20353;-67
2021/12/03 05:37:22;0.00;0.00;0.62;0.00;0.00;0.62;9.10;6.53;;;17.40;24.00;;;;;;2252929;61;20415;-67
2021/12/03 05:39:48;0.00;0.00;0.62;0.00;0.00;0.62;7.63;6.17;;;17.40;23.80;;;;;;2253609;61;20365;-68
2021/12/03 05:42:14;0.00;0.00;0.62;0.00;0.00;0.62;7.90;5.20;;;17.40;23.80;;;;;;2253526;61;20570;-68
2021/12/03 05:44:41;0.00;0.00;0.62;0.00;0.00;0.62;7.40;5.37;;;17.30;23.60;;;;;;2252301;61;20359;-65
2021/12/03 05:47:07;0.00;0.00;0.62;0.00;0.00;0.62;7.10;4.83;;;17.20;23.70;;;;;;2253127;61;20746;-67
2021/12/03 05:49:35;0.00;0.00;0.62;0.00;0.00;0.62;9.00;5.40;;;17.20;23.90;;;;;;2253866;61;20371;-65
2021/12/03 05:52:04;0.00;0.00;0.62;0.00;0.00;0.62;7.73;5.63;;;17.10;24.00;;;;;;2253001;61;20379;-64
2021/12/03 05:54:30;0.00;0.00;0.62;0.00;0.00;0.62;9.43;5.77;;;17.10;24.10;;;;;;2253378;61;20365;-64
2021/12/03 05:57:15;0.00;0.00;0.62;0.00;0.00;0.62;9.63;6.30;;;17.10;24.10;;;;;;2254251;61;20387;-64
2021/12/03 06:00:00;0.00;0.00;0.62;0.00;0.00;0.62;8.40;5.40;;;17.00;24.10;;;;;;2252302;61;20363;-64
2021/12/03 06:02:44;0.00;0.00;0.62;0.00;0.00;0.62;7.53;5.10;;;17.00;24.20;;;;;;2253064;61;20400;-63
2021/12/03 06:05:31;0.00;0.00;0.62;0.00;0.00;0.62;6.40;5.20;;;17.00;24.30;;;;;;2253599;61;20380;-66
2021/12/03 06:08:16;0.00;0.00;0.62;0.00;0.00;0.62;10.30;6.20;;;17.00;24.30;;;;;;2253454;61;20363;-67
2021/12/03 06:11:01;0.00;0.00;0.62;0.00;0.00;0.62;7.47;4.90;;;16.90;24.40;;;;;;2253360;61;20383;-68
2021/12/03 06:13:46;0.00;0.00;0.62;0.00;0.00;0.62;7.03;5.23;;;16.90;25.00;;;;;;2252887;61;20716;-64
2021/12/03 06:22:14;0.00;0.00;0.62;0.00;0.00;0.62;9.00;6.30;;;16.90;25.00;;;;;;2258510;61;20460;-63
2021/12/03 06:25:00;0.00;0.00;0.62;0.00;0.00;0.62;8.80;5.80;;;16.90;24.40;;;;;;2254209;61;20734;-65
2021/12/03 06:27:46;0.00;0.00;0.62;0.00;0.00;0.62;9.20;6.03;;;16.90;24.40;;;;;;2250777;61;20442;-66
2021/12/03 06:30:30;0.00;0.00;0.62;0.00;0.00;0.62;9.60;5.97;;;16.80;24.40;;;;;;2274941;48;20411;-67
2021/12/03 06:36:05;0.00;0.00;0.62;0.00;0.00;0.62;8.10;5.20;;;16.80;24.40;;;;;;2259312;54;20417;-66
2021/12/03 06:38:52;0.00;0.00;0.62;0.00;0.00;0.62;7.93;5.40;;;16.80;24.50;;;;;;2254331;61;20758;-65
2021/12/03 06:41:36;0.00;0.00;0.62;0.00;0.00;0.62;9.00;4.87;;;16.80;24.70;;;;;;2255221;61;20355;-65
2021/12/03 06:47:09;0.00;0.00;0.62;0.00;0.00;0.62;5.90;4.17;;;16.90;24.80;;;;;;2257267;54;20825;-64
2021/12/03 06:49:54;0.00;0.00;0.62;0.00;0.00;0.62;4.83;3.73;;;16.90;24.90;;;;;;2253064;61;20394;-64
2021/12/03 06:52:41;0.00;0.00;0.62;0.00;0.00;0.62;5.50;3.80;;;17.00;24.90;;;;;;2255559;61;20386;-64
2021/12/03 06:55:28;0.00;0.00;0.62;0.00;0.00;0.62;4.77;3.33;;;17.00;24.90;;;;;;2255159;61;20374;-65
2021/12/03 06:58:15;0.00;0.00;0.62;0.00;0.00;0.62;5.13;3.10;;;17.10;25.00;;;;;;2255984;61;20391;-64
2021/12/03 07:00:59;0.00;0.00;0.62;0.00;0.00;0.62;4.80;3.23;;;17.10;24.90;;;;;;2261623;61;20382;-64
2021/12/03 07:03:44;0.00;0.00;0.62;0.00;0.00;0.62;5.33;3.60;;;17.20;24.90;;;;;;2259282;61;20401;-64
2021/12/03 07:06:28;0.00;0.00;0.62;0.00;0.00;0.62;5.17;3.10;;;17.20;24.90;;;;;;2252376;61;20782;-67
2021/12/03 07:09:13;0.00;0.00;0.62;0.00;0.00;0.62;6.73;3.80;;;17.20;25.00;;;;;;2250052;61;20356;-64
2021/12/03 07:11:59;0.00;0.00;0.62;0.00;0.00;0.62;5.00;3.00;;;17.30;25.00;;;;;;2252601;61;20379;-64
2021/12/03 07:14:43;0.00;0.00;0.62;0.00;0.00;0.62;3.77;2.80;;;17.30;25.00;;;;;;2248668;61;20462;-64
2021/12/03 07:17:32;0.00;0.00;0.62;0.00;0.00;0.62;3.80;2.90;;;17.40;25.00;;;;;;2258487;56;20411;-63
2021/12/03 07:20:19;0.00;0.00;0.62;0.00;0.00;0.62;4.97;3.30;;;17.40;25.00;;;;;;2253664;61;20414;-63
2021/12/03 07:23:04;0.00;0.00;0.62;0.00;0.00;0.62;4.53;2.90;;;17.40;24.90;;;;;;2253689;61;20403;-63
2021/12/03 07:25:49;0.00;0.00;0.62;0.00;0.00;0.62;3.40;2.67;;;17.50;24.90;;;;;;2254328;61;20602;-64
2021/12/03 07:28:37;0.00;0.00;0.62;0.00;0.00;0.62;4.23;2.83;;;17.50;24.90;;;;;;2254288;61;20395;-65
2021/12/03 07:31:25;0.00;0.00;0.62;0.00;0.00;0.62;3.73;2.70;;;17.60;24.90;;;;;;2255097;61;20608;-62
2021/12/03 07:34:11;0.00;0.00;0.62;0.00;0.00;0.62;4.87;2.83;;;17.60;24.90;;;;;;2244072;61;20425;-62
2021/12/03 07:36:56;0.00;0.00;0.62;0.00;0.00;0.62;4.10;3.07;;;17.60;24.90;;;;;;2241677;61;20479;-62
2021/12/03 07:39:44;0.00;0.00;0.62;0.00;0.00;0.62;3.87;2.70;;;17.70;25.00;;;;;;2243791;61;20381;-64
2021/12/03 07:42:28;0.00;0.00;0.62;0.00;0.00;0.62;3.20;2.23;;;17.70;25.00;;;;;;2240443;61;20453;-64
2021/12/03 07:45:16;0.00;0.00;0.62;0.00;0.00;0.62;3.67;3.03;;;17.70;25.00;;;;;;2243229;61;20373;-65
2021/12/03 07:48:01;0.00;0.00;0.62;0.00;0.00;0.62;3.53;2.33;;;17.70;25.00;;;;;;2242175;61;20714;-65
2021/12/03 07:50:46;0.00;0.00;0.62;0.00;0.00;0.62;3.17;2.33;;;17.70;25.00;;;;;;2242522;61;20433;-63
2021/12/03 07:53:37;0.00;0.00;0.62;0.00;0.00;0.62;3.20;2.33;;;17.80;25.10;;;;;;2248853;61;20476;-64
2021/12/03 07:56:21;0.00;0.00;0.62;0.00;0.00;0.62;3.80;2.43;;;17.80;25.10;;;;;;2244091;61;20476;-64
2021/12/03 07:59:06;0.00;0.00;0.62;0.00;0.00;0.62;3.80;2.67;;;17.80;25.10;;;;;;2241680;61;20593;-65
2021/12/03 08:01:52;0.00;0.00;0.62;0.00;0.00;0.62;4.00;2.60;;;17.80;25.10;;;;;;2243908;61;20361;-64
2021/12/03 08:04:40;0.00;0.00;0.62;0.00;0.00;0.62;3.60;2.80;;;17.90;25.10;;;;;;2241418;61;20489;-65
2021/12/03 08:07:24;0.00;0.00;0.62;0.00;0.00;0.62;4.53;2.67;;;17.90;25.10;;;;;;2245217;61;20416;-65
2021/12/03 08:10:09;0.00;0.00;0.62;0.00;0.00;0.62;3.67;2.60;;;17.90;25.10;;;;;;2244276;61;20425;-64
2021/12/03 08:12:55;0.00;0.00;0.62;0.00;0.00;0.62;5.57;3.13;;;17.90;25.10;;;;;;2243684;61;20365;-64
2021/12/03 08:15:39;0.00;0.00;0.62;0.00;0.00;0.62;4.00;2.70;;;17.90;25.10;;;;;;2244631;61;20393;-64
2021/12/03 08:18:25;0.00;0.00;0.62;0.00;0.00;0.62;3.80;2.53;;;17.90;25.10;;;;;;2244423;61;20358;-65
2021/12/03 08:21:10;0.00;0.00;0.62;0.00;0.00;0.62;3.13;2.17;;;17.90;25.10;;;;;;2243600;61;20361;-63
2021/12/03 08:23:54;0.00;0.00;0.62;0.00;0.00;0.62;3.77;2.50;;;18.00;25.20;;;;;;2242939;61;20362;-65
2021/12/03 08:26:30;0.00;0.00;0.62;0.00;0.00;0.62;3.13;2.37;;;18.00;25.20;;;;;;2252152;61;20479;-65
2021/12/03 08:32:06;0.00;0.00;0.62;0.00;0.00;0.62;3.43;2.53;;;18.00;25.10;;;;;;2475979;53;21145;-65
2021/12/03 08:34:52;0.00;0.00;0.62;0.00;0.00;0.62;2.50;2.00;;;18.00;25.10;;;;;;2247063;61;20416;-65
2021/12/03 08:37:43;0.00;0.00;0.62;0.00;0.00;0.62;4.43;2.70;;;18.10;25.10;;;;;;2243898;61;20389;-63
2021/12/03 08:40:28;0.00;0.00;0.62;0.00;0.00;0.62;3.77;2.70;;;18.10;25.10;;;;;;2243246;61;20369;-63
2021/12/03 08:43:12;0.00;0.00;0.62;0.00;0.00;0.62;3.70;2.47;;;18.10;25.20;;;;;;2244290;61;20443;-64
2021/12/03 08:45:57;0.00;0.00;0.62;0.00;0.00;0.62;4.07;2.30;;;18.10;25.30;;;;;;2244577;61;20457;-65
2021/12/03 08:48:46;0.00;0.00;0.62;0.00;0.00;0.62;4.03;2.60;;;18.10;25.30;;;;;;2241537;61;20373;-65
2021/12/03 08:51:46;0.00;0.00;0.62;0.00;0.00;0.62;3.80;2.33;;;18.10;25.30;;;;;;2244786;61;20646;-65
2021/12/03 08:57:36;0.00;0.00;0.62;0.00;0.00;0.62;5.10;2.60;;;18.10;25.30;;;;;;2244360;61;20421;-66
2021/12/03 09:00:21;0.00;0.00;0.62;0.00;0.00;0.62;3.77;2.93;;;18.20;25.30;;;;;;2242171;61;20495;-67
2021/12/03 09:03:06;0.00;0.00;0.62;0.00;0.00;0.62;3.40;2.53;;;18.20;25.30;;;;;;2244447;61;20585;-64
2021/12/03 09:05:51;0.00;0.00;0.62;0.00;0.00;0.62;2.60;1.97;;;18.20;25.40;;;;;;2243639;61;20432;-69
2021/12/03 09:08:40;0.00;0.00;0.62;0.00;0.00;0.62;3.17;2.20;;;18.20;25.30;;;;;;2248942;61;20376;-66
2021/12/03 09:11:27;0.00;0.00;0.62;0.00;0.00;0.62;2.70;2.03;;;18.20;25.30;;;;;;2246796;61;20730;-68
2021/12/03 09:14:25;0.00;0.00;0.62;0.00;0.00;0.62;2.80;2.00;;;18.30;25.40;;;;;;2493879;46;20403;-68
2021/12/03 09:22:53;0.00;0.00;0.62;0.00;0.00;0.62;3.90;2.67;;;18.30;25.40;;;;;;2251634;61;20590;-66
2021/12/03 09:25:44;0.00;0.00;0.62;0.00;0.00;0.62;3.93;2.37;;;18.30;25.40;;;;;;2246268;61;20708;-69
2021/12/03 09:28:29;0.00;0.00;0.62;0.00;0.00;0.62;4.47;2.23;;;18.30;25.40;;;;;;2240319;61;20682;-66
2021/12/03 09:31:16;0.00;0.00;0.62;0.00;0.00;0.62;3.10;2.10;;;18.40;25.50;;;;;;2242934;61;20429;-64
2021/12/03 09:34:09;0.00;0.00;0.62;0.00;0.00;0.62;3.50;2.40;;;18.40;25.50;;;;;;2263340;61;20371;-67
2021/12/03 09:36:54;0.00;0.00;0.62;0.00;0.00;0.62;3.67;2.13;;;18.40;25.50;;;;;;2245279;58;20438;-65
2021/12/03 09:39:42;0.00;0.00;0.62;0.00;0.00;0.62;3.80;2.40;;;18.50;25.50;;;;;;2307728;58;20368;-67
2021/12/03 09:42:28;0.00;0.00;0.62;0.00;0.00;0.62;3.13;2.13;;;18.50;25.50;;;;;;2242288;58;21256;-65
2021/12/03 09:45:18;0.00;0.00;0.62;0.00;0.00;0.62;3.57;2.60;;;18.50;25.50;;;;;;2245198;61;21125;-65
2021/12/03 09:48:18;0.00;0.00;0.62;0.00;0.00;0.62;3.67;2.10;;;18.50;25.50;;;;;;2248567;61;20381;-66
2021/12/03 09:51:03;0.00;0.00;0.62;0.00;0.00;0.62;2.30;2.00;;;18.50;25.60;;;;;;2250513;58;20436;-65
2021/12/03 09:56:58;0.00;0.00;0.62;0.00;0.00;0.62;3.10;2.20;;;18.60;25.60;;;;;;2264383;58;20412;-69
2021/12/03 10:00:05;0.00;0.00;0.62;0.00;0.00;0.62;2.40;1.73;;;18.60;25.60;;;;;;2262447;58;20416;-67
2021/12/03 10:03:20;0.00;0.00;0.62;0.00;0.00;0.62;2.40;1.77;;;18.70;25.70;;;;;;2249723;61;20404;-65
2021/12/03 10:17:49;0.00;0.00;0.62;0.00;0.00;0.62;3.00;1.90;;;18.80;25.80;;;;;;2253584;61;20648;-66
2021/12/03 10:20:41;0.00;0.00;0.62;0.00;0.00;0.62;3.00;2.10;;;18.80;25.80;;;;;;2252111;61;20364;-68
2021/12/03 10:38:14;0.00;0.00;0.62;0.00;0.00;0.62;4.80;3.23;;;19.00;25.90;;;;;;2247703;61;20372;-67
2021/12/03 10:41:16;0.00;0.00;0.62;0.00;0.00;0.62;4.37;3.57;;;19.00;25.90;;;;;;2249292;61;20433;-69
2021/12/03 10:47:23;0.00;0.00;0.62;0.00;0.00;0.62;3.97;3.53;;;19.00;25.90;;;;;;2243506;61;20481;-68
2021/12/03 10:50:04;0.00;0.00;0.62;0.00;0.00;0.62;3.67;2.80;;;19.00;25.90;;;;;;2247239;61;20361;-69
2021/12/03 10:58:51;0.00;0.00;0.62;0.00;0.00;0.62;3.67;2.90;;;19.10;26.00;;;;;;2247328;61;20420;-67
2021/12/03 11:33:44;0.00;0.00;0.62;0.00;0.00;0.62;5.23;4.73;;;19.30;25.80;;;;;;2274226;56;20465;-63
2021/12/03 11:35:39;0.00;0.00;0.62;0.00;0.00;0.62;4.07;3.30;;;19.30;25.80;;;;;;2268340;61;20436;-63
2021/12/03 11:51:16;0.00;0.00;0.62;0.00;0.00;0.62;4.40;3.30;;;19.30;25.60;;;;;;2264993;61;20372;-63
2021/12/03 11:55:19;0.00;0.00;0.62;0.00;0.00;0.62;5.37;3.30;;;19.30;25.60;;;;;;2264634;61;20407;-63
2021/12/03 12:00:55;0.00;0.00;0.62;0.00;0.00;0.62;6.60;3.47;;;19.30;25.60;;;;;;2264495;61;20357;-63
2021/12/03 12:04:04;0.00;0.00;0.62;0.00;0.00;0.62;4.00;3.13;;;19.30;25.60;;;;;;2265205;61;20380;-63
2021/12/03 12:26:08;0.00;0.00;0.62;0.00;0.00;0.62;3.37;2.83;;;19.40;25.50;;;;;;2256674;61;20632;-62
2021/12/03 12:59:51;0.00;0.00;0.62;0.00;0.00;0.62;2.80;2.10;;;19.40;25.40;;;;;;2244955;61;20441;-62
2021/12/03 13:11:14;0.00;0.00;0.62;0.00;0.00;0.62;2.80;2.00;;;19.40;25.40;;;;;;2244884;61;20566;-63
2021/12/03 13:22:58;0.00;0.00;0.62;0.00;0.00;0.62;5.13;2.20;;;19.40;25.30;;;;;;2256250;61;20435;-63
2021/12/03 13:56:51;0.00;0.00;0.62;0.00;0.00;0.62;2.47;1.87;;;19.30;25.20;;;;;;2260120;61;20377;-61
2021/12/03 13:59:55;0.00;0.00;0.62;0.00;0.00;0.62;3.07;2.27;;;19.30;25.20;;;;;;2259740;61;20357;-60
2021/12/03 14:14:05;0.00;0.00;0.62;0.00;0.00;0.62;2.30;1.50;;;19.30;25.30;;;;;;2265326;61;20412;-66
2021/12/03 14:43:45;0.00;0.00;0.62;0.00;0.00;0.62;1.80;1.23;;;19.30;25.30;;;;;;2266242;61;20356;-61
2021/12/03 14:56:07;0.00;0.00;0.62;0.00;0.00;0.62;1.90;1.40;;;19.40;25.40;;;;;;2261085;61;20721;-63
2021/12/03 14:59:09;0.00;0.00;0.62;0.00;0.00;0.62;1.83;1.40;;;19.40;25.90;;;;;;2261862;61;20401;-63
2021/12/03 15:02:04;0.00;0.00;0.62;0.00;0.00;0.62;1.90;1.17;;;19.40;25.40;;;;;;2260243;61;20365;-63
2021/12/03 15:05:11;0.00;0.00;0.62;0.00;0.00;0.62;1.67;1.10;;;19.40;25.40;;;;;;2262010;61;20390;-64
2021/12/03 15:07:57;0.00;0.00;0.62;0.00;0.00;0.62;2.00;1.47;;;19.40;25.40;;;;;;2261966;61;20409;-64
2021/12/03 15:11:03;0.00;0.00;0.62;0.00;0.00;0.62;3.33;1.40;;;19.40;25.40;;;;;;2260964;61;20647;-63
2021/12/03 15:26:01;0.00;0.00;0.62;0.00;0.00;0.62;1.57;1.10;;;19.40;25.40;;;;;;2260987;61;20481;-62
2021/12/03 15:31:59;0.00;0.00;0.62;0.00;0.00;0.62;2.00;1.10;;;19.40;25.40;;;;;;2264332;61;20389;-62
2021/12/03 15:34:58;0.00;0.00;0.62;0.00;0.00;0.62;1.50;1.10;;;19.40;25.40;;;;;;2266104;61;20372;-60
2021/12/03 15:41:15;0.00;0.00;0.62;0.00;0.00;0.62;1.40;0.97;;;19.40;25.50;;;;;;2265056;61;20388;-61
2021/12/03 16:05:27;0.00;0.00;0.62;0.00;0.00;0.62;1.67;1.00;;;19.50;25.60;;;;;;2265974;61;20604;-60
2021/12/03 16:11:15;0.00;0.00;0.62;0.00;0.00;0.62;2.00;1.20;;;19.50;25.60;;;;;;2264761;61;20494;-60
2021/12/03 16:17:27;0.00;0.00;0.62;0.00;0.00;0.62;1.60;1.10;;;19.50;25.60;;;;;;2264637;61;20357;-60
2021/12/03 16:23:40;0.00;0.00;0.62;0.00;0.00;0.62;2.37;1.40;;;19.60;25.60;;;;;;2264663;61;20373;-61
2021/12/03 16:48:45;0.00;0.00;0.62;0.00;0.00;0.62;1.70;0.87;;;19.60;26.30;;;;;;2265270;61;20400;-64
2021/12/03 16:51:25;0.00;0.00;0.62;0.00;0.00;0.62;2.07;1.13;;;19.60;25.70;;;;;;2265541;61;20381;-62
2021/12/03 16:54:13;0.00;0.00;0.62;0.00;0.00;0.62;1.53;0.90;;;19.60;25.80;;;;;;2264336;61;20358;-63
2021/12/03 16:56:59;0.00;0.00;0.62;0.00;0.00;0.62;1.67;0.97;;;19.60;25.80;;;;;;2276511;58;20396;-64
2021/12/03 16:59:46;0.00;0.00;0.62;0.00;0.00;0.62;2.10;1.17;;;19.60;25.80;;;;;;2502241;53;20459;-64
2021/12/03 17:02:43;0.00;0.00;0.62;0.00;0.00;0.62;1.50;0.93;;;19.60;25.80;;;;;;2265447;61;20466;-65
2021/12/03 17:08:31;0.00;0.00;0.62;0.00;0.00;0.62;1.53;0.80;;;19.70;25.80;;;;;;2264786;61;20653;-66
2021/12/03 17:24:02;0.00;0.00;0.62;0.00;0.00;0.62;2.30;1.10;;;19.80;25.90;;;;;;2264443;61;20348;-65
2021/12/03 17:53:57;0.00;0.00;0.62;0.00;0.00;0.62;1.63;0.83;;;19.90;25.90;;;;;;2265256;61;20404;-66